createdAt,value
2022-09-24T00:01:17.944Z,42.80
2022-09-24T00:03:50.004Z,39.77
2022-09-24T00:06:17.449Z,39.53
2022-09-24T00:08:43.821Z,43.57
2022-09-24T00:11:10.754Z,40.17
2022-09-24T00:13:37.253Z,40.70
2022-09-24T00:16:12.172Z,41.73
2022-09-24T00:18:38.915Z,36.13
2022-09-24T00:21:14.061Z,40.07
2022-09-24T00:23:41.055Z,38.27
2022-09-24T00:26:10.610Z,40.87
2022-09-24T00:28:37.329Z,48.33
2022-09-24T00:31:06.217Z,45.43
2022-09-24T00:33:36.094Z,46.10
2022-09-24T00:36:04.987Z,50.27
2022-09-24T00:38:32.457Z,48.20
2022-09-24T00:41:00.156Z,46.73
2022-09-24T00:43:31.168Z,51.73
2022-09-24T00:46:13.267Z,50.47
2022-09-24T00:48:41.142Z,49.03
2022-09-24T00:51:11.035Z,41.17
2022-09-24T00:53:37.426Z,44.77
2022-09-24T00:56:05.600Z,42.87
2022-09-24T00:58:33.386Z,45.40
2022-09-24T01:01:07.146Z,39.73
2022-09-24T01:03:38.086Z,46.70
2022-09-24T01:06:09.341Z,40.80
2022-09-24T01:08:36.310Z,45.40
2022-09-24T01:11:21.587Z,46.43
2022-09-24T01:14:24.930Z,48.77
2022-09-24T01:17:02.390Z,43.43
2022-09-24T01:19:31.886Z,44.20
2022-09-24T01:22:06.095Z,46.70
2022-09-24T01:24:44.294Z,46.00
2022-09-24T01:27:28.613Z,50.87
2022-09-24T01:30:06.813Z,48.00
2022-09-24T01:32:41.229Z,46.93
2022-09-24T01:35:18.642Z,46.60
2022-09-24T01:37:51.623Z,46.20
2022-09-24T01:40:20.452Z,44.07
2022-09-24T01:42:47.358Z,42.10
2022-09-24T01:45:16.028Z,33.23
2022-09-24T01:47:43.668Z,34.53
2022-09-24T01:50:13.347Z,33.57
2022-09-24T01:52:56.247Z,20.73
2022-09-24T01:55:30.074Z,17.93
2022-09-24T01:58:02.042Z,19.30
2022-09-24T02:00:28.940Z,13.73
2022-09-24T02:03:09.917Z,20.10
2022-09-24T02:05:49.877Z,18.17
2022-09-24T02:08:31.604Z,17.43
2022-09-24T02:11:06.075Z,20.43
2022-09-24T02:13:42.317Z,16.43
2022-09-24T02:16:13.145Z,17.97
2022-09-24T02:18:42.621Z,20.47
2022-09-24T02:21:15.654Z,17.37
2022-09-24T02:23:51.782Z,11.47
2022-09-24T02:26:18.256Z,17.97
2022-09-24T02:28:44.945Z,12.73
2022-09-24T02:31:15.428Z,11.13
2022-09-24T02:33:50.103Z,13.30
2022-09-24T02:36:17.455Z,15.23
2022-09-24T02:38:46.301Z,15.40
2022-09-24T02:41:15.561Z,14.63
2022-09-24T02:43:42.042Z,13.33
2022-09-24T02:46:08.562Z,15.23
2022-09-24T02:48:35.050Z,11.53
2022-09-24T02:51:01.580Z,12.57
2022-09-24T02:53:28.078Z,11.30
2022-09-24T02:55:54.490Z,11.23
2022-09-24T02:58:20.981Z,10.87
2022-09-24T03:00:47.488Z,12.03
2022-09-24T03:03:18.659Z,8.13
2022-09-24T03:05:45.126Z,11.17
2022-09-24T03:08:14.666Z,11.40
2022-09-24T03:10:41.148Z,13.27
2022-09-24T03:13:07.590Z,17.83
2022-09-24T03:15:34.091Z,10.93
2022-09-24T03:18:00.534Z,16.67
2022-09-24T03:20:27.006Z,11.70
2022-09-24T03:22:53.611Z,7.77
2022-09-24T03:25:21.719Z,15.27
2022-09-24T03:27:50.935Z,9.63
2022-09-24T03:30:17.659Z,12.07
2022-09-24T03:32:44.215Z,10.37
2022-09-24T03:35:10.771Z,11.17
2022-09-24T03:37:40.685Z,9.80
2022-09-24T03:40:10.162Z,9.37
2022-09-24T03:42:36.612Z,16.33
2022-09-24T03:45:04.147Z,13.37
2022-09-24T03:47:30.585Z,12.40
2022-09-24T03:49:57.528Z,15.67
2022-09-24T03:52:24.407Z,12.73
2022-09-24T03:54:50.830Z,10.67
2022-09-24T03:57:17.442Z,9.03
2022-09-24T03:59:44.593Z,12.87
2022-09-24T04:02:12.081Z,16.67
2022-09-24T04:04:39.016Z,26.13
2022-09-24T04:07:05.949Z,18.10
2022-09-24T04:09:32.436Z,8.80
2022-09-24T04:11:58.819Z,11.87
2022-09-24T04:14:27.680Z,12.07
2022-09-24T04:16:54.096Z,15.73
2022-09-24T04:19:20.481Z,14.33
2022-09-24T04:21:48.939Z,13.63
2022-09-24T04:24:22.632Z,15.10
2022-09-24T04:26:49.065Z,11.50
2022-09-24T04:29:15.563Z,14.53
2022-09-24T04:31:42.145Z,12.60
2022-09-24T04:34:09.933Z,14.27
2022-09-24T04:36:36.315Z,13.50
2022-09-24T04:39:02.749Z,10.57
2022-09-24T04:41:29.503Z,13.97
2022-09-24T04:43:57.416Z,9.67
2022-09-24T04:46:23.983Z,13.83
2022-09-24T04:48:50.448Z,13.80
2022-09-24T04:51:17.114Z,12.27
2022-09-24T04:53:43.572Z,13.13
2022-09-24T04:56:10.019Z,16.27
2022-09-24T04:58:38.449Z,12.03
2022-09-24T05:01:07.167Z,13.70
2022-09-24T05:03:33.785Z,15.77
2022-09-24T05:06:00.425Z,7.27
2022-09-24T05:08:26.875Z,9.27
2022-09-24T05:10:53.488Z,15.60
2022-09-24T05:13:25.197Z,9.23
2022-09-24T05:15:51.666Z,12.50
2022-09-24T05:18:18.107Z,8.77
2022-09-24T05:20:44.563Z,11.83
2022-09-24T05:23:12.221Z,12.47
2022-09-24T05:25:38.614Z,7.30
2022-09-24T05:28:08.024Z,15.13
2022-09-24T05:30:34.525Z,19.67
2022-09-24T05:33:01.066Z,14.07
2022-09-24T05:35:27.534Z,8.00
2022-09-24T05:37:54.124Z,20.33
2022-09-24T05:40:21.202Z,8.93
2022-09-24T05:42:47.723Z,14.80
2022-09-24T05:45:14.271Z,16.33
2022-09-24T05:47:40.754Z,12.13
2022-09-24T05:50:07.853Z,14.97
2022-09-24T05:52:34.319Z,13.47
2022-09-24T05:55:05.381Z,17.00
2022-09-24T05:57:33.864Z,10.53
2022-09-24T06:00:01.370Z,12.50
2022-09-24T06:02:27.897Z,11.07
2022-09-24T06:04:54.497Z,14.93
2022-09-24T06:07:21.237Z,9.67
2022-09-24T06:09:47.664Z,17.00
2022-09-24T06:12:14.299Z,13.97
2022-09-24T06:14:40.957Z,13.33
2022-09-24T06:17:08.848Z,20.87
2022-09-24T06:19:35.545Z,13.17
2022-09-24T06:22:02.121Z,11.23
2022-09-24T06:24:28.640Z,13.43
2022-09-24T06:26:55.175Z,16.00
2022-09-24T06:29:21.598Z,17.47
2022-09-24T06:31:48.086Z,10.40
2022-09-24T06:34:14.559Z,10.13
2022-09-24T06:36:40.967Z,11.07
2022-09-24T06:39:08.033Z,11.53
2022-09-24T06:41:34.515Z,15.33
2022-09-24T06:44:01.148Z,12.70
2022-09-24T06:46:27.607Z,12.00
2022-09-24T06:48:54.155Z,10.00
2022-09-24T06:51:21.012Z,15.20
2022-09-24T06:53:51.621Z,16.07
2022-09-24T06:56:18.027Z,9.03
2022-09-24T06:58:44.410Z,9.53
2022-09-24T07:01:10.976Z,12.60
2022-09-24T07:03:37.401Z,10.43
2022-09-24T07:06:05.797Z,14.70
2022-09-24T07:08:32.681Z,11.23
2022-09-24T07:10:59.200Z,12.93
2022-09-24T07:13:25.562Z,9.40
2022-09-24T07:15:52.202Z,10.63
2022-09-24T07:18:20.187Z,8.80
2022-09-24T07:20:54.170Z,14.63
2022-09-24T07:23:21.022Z,17.33
2022-09-24T07:25:48.074Z,10.53
2022-09-24T07:28:15.059Z,7.83
2022-09-24T07:30:41.749Z,14.50
2022-09-24T07:33:08.788Z,9.47
2022-09-24T07:35:38.392Z,9.70
2022-09-24T07:38:07.519Z,7.37
2022-09-24T07:40:34.568Z,10.57
2022-09-24T07:43:01.185Z,11.00
2022-09-24T07:45:28.819Z,7.80
2022-09-24T07:47:59.259Z,16.30
2022-09-24T07:50:26.424Z,6.80
2022-09-24T07:52:53.198Z,12.40
2022-09-24T07:55:19.668Z,8.27
2022-09-24T07:57:50.797Z,7.77
2022-09-24T08:00:18.729Z,10.00
2022-09-24T08:02:47.419Z,12.80
2022-09-24T08:05:15.975Z,8.77
2022-09-24T08:07:42.863Z,9.13
2022-09-24T08:10:09.575Z,7.33
2022-09-24T08:12:37.100Z,6.63
2022-09-24T08:15:03.781Z,10.47
2022-09-24T08:17:31.229Z,8.57
2022-09-24T08:19:59.052Z,8.20
2022-09-24T08:22:25.657Z,5.47
2022-09-24T08:24:53.937Z,10.63
2022-09-24T08:27:20.506Z,6.23
2022-09-24T08:29:47.029Z,7.67
2022-09-24T08:32:17.321Z,6.30
2022-09-24T08:34:47.195Z,6.93
2022-09-24T08:37:16.398Z,12.07
2022-09-24T08:39:42.934Z,9.77
2022-09-24T08:42:25.563Z,10.00
2022-09-24T08:44:56.515Z,12.60
2022-09-24T08:47:56.140Z,3.90
2022-09-24T08:50:44.369Z,12.67
2022-09-24T08:53:28.550Z,6.83
2022-09-24T08:55:59.460Z,7.00
2022-09-24T08:58:49.617Z,9.30
2022-09-24T09:01:24.183Z,8.10
2022-09-24T09:04:09.119Z,11.40
2022-09-24T09:06:52.269Z,7.70
2022-09-24T09:09:28.814Z,7.47
2022-09-24T09:12:02.877Z,9.13
2022-09-24T09:14:54.445Z,9.43
2022-09-24T09:17:31.882Z,7.20
2022-09-24T09:20:01.623Z,5.83
2022-09-24T09:22:38.224Z,6.07
2022-09-24T09:25:26.063Z,5.37
2022-09-24T09:28:01.092Z,5.10
2022-09-24T09:30:34.373Z,9.87
2022-09-24T09:33:27.287Z,9.30
2022-09-24T09:36:17.689Z,10.80
2022-09-24T09:39:08.998Z,9.03
2022-09-24T09:41:45.525Z,9.53
2022-09-24T09:44:15.875Z,10.10
2022-09-24T09:46:56.896Z,13.37
2022-09-24T09:49:26.989Z,7.17
2022-09-24T09:51:57.980Z,5.33
2022-09-24T09:54:36.461Z,5.90
2022-09-24T09:57:04.033Z,6.97
2022-09-24T09:59:31.175Z,7.60
2022-09-24T10:01:57.791Z,7.87
2022-09-24T10:04:39.208Z,8.50
2022-09-24T10:07:09.318Z,7.43
2022-09-24T10:09:36.919Z,7.10
2022-09-24T10:12:15.424Z,9.33
2022-09-24T10:14:44.791Z,8.20
2022-09-24T10:17:16.537Z,7.10
2022-09-24T10:19:44.189Z,5.60
2022-09-24T10:22:23.351Z,6.70
2022-09-24T10:24:51.399Z,8.70
2022-09-24T10:27:29.324Z,4.87
2022-09-24T10:29:56.541Z,6.00
2022-09-24T10:32:26.564Z,5.23
2022-09-24T10:34:57.817Z,8.83
2022-09-24T10:37:24.459Z,4.93
2022-09-24T10:40:20.305Z,5.37
2022-09-24T10:42:55.657Z,6.83
2022-09-24T10:45:27.912Z,6.00
2022-09-24T10:48:06.264Z,8.77
2022-09-24T10:50:45.483Z,9.53
2022-09-24T10:53:40.214Z,4.70
2022-09-24T10:56:45.244Z,4.90
2022-09-24T10:59:21.275Z,7.70
2022-09-24T11:01:47.700Z,7.50
2022-09-24T11:04:39.161Z,5.80
2022-09-24T11:07:14.566Z,6.80
2022-09-24T11:09:53.842Z,6.23
2022-09-24T11:12:27.698Z,6.93
2022-09-24T11:15:06.097Z,5.63
2022-09-24T11:17:45.125Z,5.33
2022-09-24T11:20:14.614Z,7.73
2022-09-24T11:22:59.494Z,5.10
2022-09-24T11:25:38.124Z,4.30
2022-09-24T11:28:04.600Z,9.07
2022-09-24T11:30:49.874Z,6.37
2022-09-24T11:33:23.130Z,7.37
2022-09-24T11:36:01.336Z,9.97
2022-09-24T11:38:45.068Z,7.40
2022-09-24T11:41:59.744Z,6.23
2022-09-24T11:44:57.132Z,10.03
2022-09-24T11:47:42.292Z,5.17
2022-09-24T11:50:33.379Z,6.37
2022-09-24T11:53:12.243Z,5.13
2022-09-24T11:55:59.078Z,6.33
2022-09-24T11:58:31.677Z,6.40
2022-09-24T12:01:15.531Z,7.03
2022-09-24T12:04:00.267Z,9.23
2022-09-24T12:06:38.264Z,8.63
2022-09-24T12:09:31.746Z,9.27
2022-09-24T12:12:11.497Z,7.13
2022-09-24T12:14:53.013Z,6.57
2022-09-24T12:17:44.152Z,6.57
2022-09-24T12:20:46.095Z,6.43
2022-09-24T12:23:15.960Z,6.10
2022-09-24T12:25:45.168Z,3.80
2022-09-24T12:28:17.195Z,4.50
2022-09-24T12:30:55.715Z,6.57
2022-09-24T12:33:40.874Z,6.87
2022-09-24T12:36:32.690Z,3.77
2022-09-24T12:39:09.376Z,6.53
2022-09-24T12:41:40.126Z,5.37
2022-09-24T12:44:12.454Z,4.60
2022-09-24T12:46:59.693Z,9.93
2022-09-24T12:49:26.206Z,5.63
2022-09-24T12:52:17.431Z,4.43
2022-09-24T12:54:45.826Z,5.57
2022-09-24T12:57:20.082Z,5.00
2022-09-24T12:59:58.156Z,6.93
2022-09-24T13:02:26.113Z,4.47
2022-09-24T13:05:01.930Z,3.37
2022-09-24T13:07:41.756Z,7.70
2022-09-24T13:10:12.569Z,3.23
2022-09-24T13:12:39.069Z,3.00
2022-09-24T13:15:28.206Z,3.70
2022-09-24T13:18:03.032Z,8.33
2022-09-24T13:20:30.551Z,5.83
2022-09-24T13:23:13.728Z,3.80
2022-09-24T13:25:40.582Z,3.93
2022-09-24T13:28:22.502Z,6.00
2022-09-24T13:30:59.627Z,7.33
2022-09-24T13:33:30.361Z,6.27
2022-09-24T13:36:11.735Z,8.70
2022-09-24T13:39:01.004Z,7.50
2022-09-24T13:41:45.996Z,9.97
2022-09-24T13:44:33.759Z,5.27
2022-09-24T13:47:11.614Z,6.73
2022-09-24T13:49:42.751Z,5.47
2022-09-24T13:52:18.204Z,7.00
2022-09-24T13:54:51.377Z,7.77
2022-09-24T13:57:24.488Z,5.90
2022-09-24T14:00:04.058Z,6.40
2022-09-24T14:02:37.322Z,5.80
2022-09-24T14:05:07.244Z,3.53
2022-09-24T14:07:36.447Z,5.00
2022-09-24T14:10:20.951Z,4.63
2022-09-24T14:12:47.330Z,9.40
2022-09-24T14:15:17.522Z,4.17
2022-09-24T14:17:55.905Z,6.00
2022-09-24T14:20:22.628Z,3.73
2022-09-24T14:22:49.545Z,6.53
2022-09-24T14:25:20.712Z,7.20
2022-09-24T14:27:51.504Z,3.80
2022-09-24T14:30:30.151Z,5.93
2022-09-24T14:32:58.859Z,4.00
2022-09-24T14:35:30.043Z,4.33
2022-09-24T14:38:04.913Z,5.40
2022-09-24T14:40:40.266Z,5.33
2022-09-24T14:43:16.243Z,3.70
2022-09-24T14:45:42.752Z,3.70
2022-09-24T14:48:32.974Z,5.03
2022-09-24T14:51:00.003Z,5.40
2022-09-24T14:53:44.473Z,3.47
2022-09-24T14:56:26.119Z,3.33
2022-09-24T14:58:52.638Z,5.67
2022-09-24T15:01:23.100Z,3.93
2022-09-24T15:03:53.208Z,4.73
2022-09-24T15:06:34.898Z,5.93
2022-09-24T15:09:26.124Z,4.80
2022-09-24T15:11:52.861Z,3.23
2022-09-24T15:14:20.381Z,3.53
2022-09-24T15:16:47.304Z,5.03
2022-09-24T15:19:20.918Z,7.37
2022-09-24T15:22:00.284Z,7.27
2022-09-24T15:24:26.693Z,9.83
2022-09-24T15:27:02.452Z,7.50
2022-09-24T15:29:28.889Z,5.23
2022-09-24T15:31:57.313Z,5.17
2022-09-24T15:34:23.939Z,3.30
2022-09-24T15:36:55.504Z,2.90
2022-09-24T15:39:22.242Z,3.37
2022-09-24T15:41:48.745Z,7.97
2022-09-24T15:44:21.476Z,4.03
2022-09-24T15:46:48.057Z,4.37
2022-09-24T15:49:14.690Z,9.67
2022-09-24T15:51:41.042Z,3.40
2022-09-24T15:54:08.895Z,3.87
2022-09-24T15:56:35.287Z,8.40
2022-09-24T15:59:01.702Z,5.80
2022-09-24T16:01:28.259Z,5.53
2022-09-24T16:03:54.699Z,3.17
2022-09-24T16:06:21.032Z,7.00
2022-09-24T16:08:47.388Z,5.17
2022-09-24T16:11:13.762Z,9.83
2022-09-24T16:13:40.297Z,5.07
2022-09-24T16:16:07.501Z,3.60
2022-09-24T16:18:34.059Z,3.97
2022-09-24T16:21:04.306Z,7.07
2022-09-24T16:23:30.677Z,4.63
2022-09-24T16:25:59.044Z,5.57
2022-09-24T16:28:27.068Z,6.03
2022-09-24T16:30:54.045Z,5.10
2022-09-24T16:33:21.597Z,5.17
2022-09-24T16:35:48.370Z,4.03
2022-09-24T16:38:18.880Z,6.23
2022-09-24T16:40:48.402Z,6.47
2022-09-24T16:43:15.913Z,7.57
2022-09-24T16:45:42.300Z,5.87
2022-09-24T16:48:11.391Z,6.00
2022-09-24T16:50:37.761Z,4.30
2022-09-24T16:53:04.176Z,6.77
2022-09-24T16:55:30.674Z,6.77
2022-09-24T16:57:57.255Z,8.70
2022-09-24T17:00:23.639Z,10.60
2022-09-24T17:02:50.259Z,5.70
2022-09-24T17:05:17.147Z,6.33
2022-09-24T17:07:43.651Z,6.33
2022-09-24T17:10:11.305Z,5.83
2022-09-24T17:12:37.789Z,8.20
2022-09-24T17:15:04.636Z,5.03
